Aérodrome :
LOGIN :

S'inscrire | Disclaimer

   EN    FR    IT 

 










Légende :    VFR   VFR Marginal   IFR   IFR Intensif   IFR Très Intensif
Visi : 
Plafond : 
>= 8 km
>= 3000ft
5 à 8 km
1000 à 3000 ft
1500m à 5 km
500 à 1000 ft
800 à 1500m
200 à 500 ft
< 800m
< 200 ft
Symboles :   Orages  Brouillard  Fortes neiges  Fortes précipitations  Vent > 20 kt
SIGMETs :   Divers  Orages  Givrage  Turbulence  Onde Orograph.  Cendres Volcan.







- Altitude de l'aérodrome : 375 ft
- Code IATA : MST


EHBK - Maastricht Aachen

DERNIER METAR :
  • 192025Z AUTO 23003KT 200V260 9999 FEW039 12/10 Q1021 NOSIG

METARs EXPIRÉS :
  • 191955Z AUTO 24003KT 200V290 9999 FEW015CB BKN029 12/09 Q1021 NOSIG
  • 191925Z AUTO 20003KT 9999 FEW015CB 12/10 Q1020 NOSIG
  • 191855Z AUTO 19003KT 9999 FEW043 BKN049 12/10 Q1020 NOSIG
  • 191825Z AUTO 12003KT 110V180 9999 SCT041 OVC046 12/09 Q1020 NOSIG
  • 191755Z AUTO 11002KT 9999 NSC 12/09 Q1020 NOSIG
  • 191725Z AUTO VRB01KT 9999 NSC 13/10 Q1020 NOSIG

TAF TAF EHBK
Valide du 19 à 18h jusqu'au 21 à 00h UTC


191719Z 1918/2024 29004KT CAVOK
PROB30
TEMPO 1918/1921 7000 -SHRA -RA FEW025TCU BKN030
BECMG 1922/2001 6000
PROB30 2002/2007 0500 FG BKN001
PROB40
TEMPO 2004/2009 2500 -DZRA BKN007
BECMG 2007/2010 9999
Pas de NOTAMs connus pour ce terrain.



MET'MAP, la Météo Aéronautique d'un coup d'oeil ! - Copyright ORBIFLY Décembre 2007 - Disclaimer

ORBIFLY MET'MAP TEAM :

Programmation & Développement : Alexandra Zaïnal
Conception & Développement : Baudouin d'Aumeries
Co-Programmation & Développement : Marc-Olivier Méhu
Soutien technique & logistique : Manuel Goepfert

Contact : metmap@orbifly.com




SOURCES & CREDITS :

   NOAA